sensor_id;sensor_type;location;lat;lon;timestamp;temperature;humidity
67050;DHT22;53955;52.442;13.284;2023-12-04T00:01:28;-3276.60;70.50
67050;DHT22;53955;52.442;13.284;2023-12-04T00:03:54;-3276.60;69.20
67050;DHT22;53955;52.442;13.284;2023-12-04T00:06:21;0.00;69.70
67050;DHT22;53955;52.442;13.284;2023-12-04T00:08:47;0.00;69.20
67050;DHT22;53955;52.442;13.284;2023-12-04T00:11:15;0.00;68.80
67050;DHT22;53955;52.442;13.284;2023-12-04T00:13:42;-3276.70;68.60
67050;DHT22;53955;52.442;13.284;2023-12-04T00:16:09;-3276.70;68.80
67050;DHT22;53955;52.442;13.284;2023-12-04T00:18:35;0.00;69.30
67050;DHT22;53955;52.442;13.284;2023-12-04T00:21:02;-3276.70;68.10
67050;DHT22;53955;52.442;13.284;2023-12-04T00:23:29;-3276.70;69.00
67050;DHT22;53955;52.442;13.284;2023-12-04T00:25:55;-3276.60;69.10
67050;DHT22;53955;52.442;13.284;2023-12-04T00:28:23;-3276.60;69.10
67050;DHT22;53955;52.442;13.284;2023-12-04T00:30:49;-3276.60;68.50
67050;DHT22;53955;52.442;13.284;2023-12-04T00:33:16;-3276.50;68.60
67050;DHT22;53955;52.442;13.284;2023-12-04T00:35:42;-3276.40;68.60
67050;DHT22;53955;52.442;13.284;2023-12-04T00:38:09;-3276.60;68.30
67050;DHT22;53955;52.442;13.284;2023-12-04T00:40:35;-3276.30;68.60
67050;DHT22;53955;52.442;13.284;2023-12-04T00:43:02;-3276.60;68.50
67050;DHT22;53955;52.442;13.284;2023-12-04T00:45:30;-3276.40;68.90
67050;DHT22;53955;52.442;13.284;2023-12-04T00:47:56;-3276.20;69.10
67050;DHT22;53955;52.442;13.284;2023-12-04T00:50:23;-3276.30;69.10
67050;DHT22;53955;52.442;13.284;2023-12-04T00:52:49;-3276.30;68.30
67050;DHT22;53955;52.442;13.284;2023-12-04T00:55:16;-3276.30;68.80
67050;DHT22;53955;52.442;13.284;2023-12-04T00:57:43;-3276.40;68.60
67050;DHT22;53955;52.442;13.284;2023-12-04T01:00:10;-3276.40;68.40
67050;DHT22;53955;52.442;13.284;2023-12-04T01:02:40;-3276.40;68.40
67050;DHT22;53955;52.442;13.284;2023-12-04T01:05:07;-3276.50;68.10
67050;DHT22;53955;52.442;13.284;2023-12-04T01:07:33;-3276.50;68.20
67050;DHT22;53955;52.442;13.284;2023-12-04T01:10:00;-3276.40;69.20
67050;DHT22;53955;52.442;13.284;2023-12-04T01:12:26;-3276.50;68.50
67050;DHT22;53955;52.442;13.284;2023-12-04T01:14:53;-3276.40;69.70
67050;DHT22;53955;52.442;13.284;2023-12-04T01:17:19;-3276.60;68.50
67050;DHT22;53955;52.442;13.284;2023-12-04T01:19:47;-3276.60;68.70
67050;DHT22;53955;52.442;13.284;2023-12-04T01:22:14;-3276.50;68.60
67050;DHT22;53955;52.442;13.284;2023-12-04T01:24:40;-3276.40;68.20
67050;DHT22;53955;52.442;13.284;2023-12-04T01:27:07;-3276.50;68.80
67050;DHT22;53955;52.442;13.284;2023-12-04T01:29:33;-3276.40;68.70
67050;DHT22;53955;52.442;13.284;2023-12-04T01:32:00;-3276.40;68.90
67050;DHT22;53955;52.442;13.284;2023-12-04T01:34:26;-3276.40;69.50
67050;DHT22;53955;52.442;13.284;2023-12-04T01:36:54;-3276.60;68.60
67050;DHT22;53955;52.442;13.284;2023-12-04T01:39:21;-3276.50;68.60
67050;DHT22;53955;52.442;13.284;2023-12-04T01:41:48;-3276.70;68.60
67050;DHT22;53955;52.442;13.284;2023-12-04T01:44:14;-3276.50;69.40
67050;DHT22;53955;52.442;13.284;2023-12-04T01:46:41;-3276.50;68.90
67050;DHT22;53955;52.442;13.284;2023-12-04T01:49:08;-3276.40;69.40
67050;DHT22;53955;52.442;13.284;2023-12-04T01:51:35;-3276.40;69.30
67050;DHT22;53955;52.442;13.284;2023-12-04T01:54:04;-3276.40;69.30
67050;DHT22;53955;52.442;13.284;2023-12-04T01:56:31;-3276.50;69.40
67050;DHT22;53955;52.442;13.284;2023-12-04T01:58:58;0.00;69.30
67050;DHT22;53955;52.442;13.284;2023-12-04T02:01:26;-3276.40;69.30
67050;DHT22;53955;52.442;13.284;2023-12-04T02:03:54;-3276.50;69.90
67050;DHT22;53955;52.442;13.284;2023-12-04T02:06:21;-3276.50;69.50
67050;DHT22;53955;52.442;13.284;2023-12-04T02:08:48;-3276.60;69.20
67050;DHT22;53955;52.442;13.284;2023-12-04T02:11:16;-3276.50;68.90
67050;DHT22;53955;52.442;13.284;2023-12-04T02:13:43;-3276.70;68.70
67050;DHT22;53955;52.442;13.284;2023-12-04T02:16:10;-3276.50;69.00
67050;DHT22;53955;52.442;13.284;2023-12-04T02:18:39;-3276.50;69.60
67050;DHT22;53955;52.442;13.284;2023-12-04T02:21:06;-3276.60;69.30
67050;DHT22;53955;52.442;13.284;2023-12-04T02:23:33;-3276.50;69.00
67050;DHT22;53955;52.442;13.284;2023-12-04T02:26:05;-3276.60;69.60
67050;DHT22;53955;52.442;13.284;2023-12-04T02:28:36;-3276.60;69.40
67050;DHT22;53955;52.442;13.284;2023-12-04T02:31:04;-3276.60;69.10
67050;DHT22;53955;52.442;13.284;2023-12-04T02:33:32;-3276.60;70.10
67050;DHT22;53955;52.442;13.284;2023-12-04T02:35:59;-3276.60;69.20
67050;DHT22;53955;52.442;13.284;2023-12-04T02:38:27;-3276.70;69.50
67050;DHT22;53955;52.442;13.284;2023-12-04T02:40:54;-3276.60;69.00
67050;DHT22;53955;52.442;13.284;2023-12-04T02:43:22;0.00;68.40
67050;DHT22;53955;52.442;13.284;2023-12-04T02:45:49;0.00;67.50
67050;DHT22;53955;52.442;13.284;2023-12-04T02:48:15;-3276.70;69.20
67050;DHT22;53955;52.442;13.284;2023-12-04T02:50:42;-3276.60;69.00
67050;DHT22;53955;52.442;13.284;2023-12-04T02:53:09;-3276.70;69.00
67050;DHT22;53955;52.442;13.284;2023-12-04T02:55:35;0.00;67.70
67050;DHT22;53955;52.442;13.284;2023-12-04T02:58:02;0.00;68.30
67050;DHT22;53955;52.442;13.284;2023-12-04T03:00:29;-3276.70;67.90
67050;DHT22;53955;52.442;13.284;2023-12-04T03:02:56;0.00;67.40
67050;DHT22;53955;52.442;13.284;2023-12-04T03:05:23;-3276.60;68.40
67050;DHT22;53955;52.442;13.284;2023-12-04T03:07:49;0.10;68.20
67050;DHT22;53955;52.442;13.284;2023-12-04T03:10:16;0.00;67.80
67050;DHT22;53955;52.442;13.284;2023-12-04T03:12:42;0.00;68.10
67050;DHT22;53955;52.442;13.284;2023-12-04T03:15:09;-3276.70;68.50
67050;DHT22;53955;52.442;13.284;2023-12-04T03:17:39;0.00;67.40
67050;DHT22;53955;52.442;13.284;2023-12-04T03:20:06;0.10;67.80
67050;DHT22;53955;52.442;13.284;2023-12-04T03:22:33;0.00;67.80
67050;DHT22;53955;52.442;13.284;2023-12-04T03:25:00;0.00;67.80
67050;DHT22;53955;52.442;13.284;2023-12-04T03:27:27;0.00;68.10
67050;DHT22;53955;52.442;13.284;2023-12-04T03:29:53;0.00;68.40
67050;DHT22;53955;52.442;13.284;2023-12-04T03:32:20;0.00;68.00
67050;DHT22;53955;52.442;13.284;2023-12-04T03:34:48;-3276.70;68.80
67050;DHT22;53955;52.442;13.284;2023-12-04T03:37:14;0.00;67.50
67050;DHT22;53955;52.442;13.284;2023-12-04T03:39:41;0.00;68.10
67050;DHT22;53955;52.442;13.284;2023-12-04T03:42:07;-3276.70;68.10
67050;DHT22;53955;52.442;13.284;2023-12-04T03:44:34;0.10;67.70
67050;DHT22;53955;52.442;13.284;2023-12-04T03:47:00;0.00;66.80
67050;DHT22;53955;52.442;13.284;2023-12-04T03:49:27;0.10;68.30
67050;DHT22;53955;52.442;13.284;2023-12-04T03:51:55;0.00;68.30
67050;DHT22;53955;52.442;13.284;2023-12-04T03:54:21;0.00;67.90
67050;DHT22;53955;52.442;13.284;2023-12-04T03:56:48;0.00;65.30
67050;DHT22;53955;52.442;13.284;2023-12-04T03:59:15;0.00;66.90
67050;DHT22;53955;52.442;13.284;2023-12-04T04:01:41;0.20;65.90
67050;DHT22;53955;52.442;13.284;2023-12-04T04:04:08;0.10;66.20
67050;DHT22;53955;52.442;13.284;2023-12-04T04:06:34;0.00;65.50
67050;DHT22;53955;52.442;13.284;2023-12-04T04:09:04;0.10;66.50
67050;DHT22;53955;52.442;13.284;2023-12-04T04:11:31;0.20;65.60
67050;DHT22;53955;52.442;13.284;2023-12-04T04:13:58;-3276.70;66.70
67050;DHT22;53955;52.442;13.284;2023-12-04T04:16:24;0.00;65.90
67050;DHT22;53955;52.442;13.284;2023-12-04T04:18:51;0.00;67.20
67050;DHT22;53955;52.442;13.284;2023-12-04T04:21:17;0.00;66.40
67050;DHT22;53955;52.442;13.284;2023-12-04T04:23:44;-3276.60;67.00
67050;DHT22;53955;52.442;13.284;2023-12-04T04:26:12;0.00;66.20
67050;DHT22;53955;52.442;13.284;2023-12-04T04:28:38;-3276.70;67.60
67050;DHT22;53955;52.442;13.284;2023-12-04T04:31:05;0.00;66.40
67050;DHT22;53955;52.442;13.284;2023-12-04T04:33:32;0.00;66.90
67050;DHT22;53955;52.442;13.284;2023-12-04T04:35:59;1.50;81.60
67050;DHT22;53955;52.442;13.284;2023-12-04T04:38:25;1.10;68.90
67050;DHT22;53955;52.442;13.284;2023-12-04T04:40:52;0.60;64.40
67050;DHT22;53955;52.442;13.284;2023-12-04T04:43:20;0.40;65.60
67050;DHT22;53955;52.442;13.284;2023-12-04T04:45:46;0.00;65.80
67050;DHT22;53955;52.442;13.284;2023-12-04T04:48:13;-3276.70;64.40
67050;DHT22;53955;52.442;13.284;2023-12-04T04:50:39;-3276.70;66.40
67050;DHT22;53955;52.442;13.284;2023-12-04T04:53:06;-3276.70;67.60
67050;DHT22;53955;52.442;13.284;2023-12-04T04:55:33;0.00;66.50
67050;DHT22;53955;52.442;13.284;2023-12-04T04:57:59;0.10;66.40
67050;DHT22;53955;52.442;13.284;2023-12-04T05:00:27;0.00;65.80
67050;DHT22;53955;52.442;13.284;2023-12-04T05:02:54;0.00;65.30
67050;DHT22;53955;52.442;13.284;2023-12-04T05:05:20;0.00;65.40
67050;DHT22;53955;52.442;13.284;2023-12-04T05:07:47;-3276.70;65.80
67050;DHT22;53955;52.442;13.284;2023-12-04T05:10:13;-3276.70;64.90
67050;DHT22;53955;52.442;13.284;2023-12-04T05:12:40;0.00;64.90
67050;DHT22;53955;52.442;13.284;2023-12-04T05:15:07;-3276.40;64.90
67050;DHT22;53955;52.442;13.284;2023-12-04T05:17:35;-3276.60;64.80
67050;DHT22;53955;52.442;13.284;2023-12-04T05:20:02;-3276.70;65.20
67050;DHT22;53955;52.442;13.284;2023-12-04T05:22:28;-3276.60;65.50
67050;DHT22;53955;52.442;13.284;2023-12-04T05:24:55;-3276.70;65.80
67050;DHT22;53955;52.442;13.284;2023-12-04T05:27:21;-3276.60;65.50
67050;DHT22;53955;52.442;13.284;2023-12-04T05:29:48;-3276.50;66.50
67050;DHT22;53955;52.442;13.284;2023-12-04T05:32:14;-3276.70;66.00
67050;DHT22;53955;52.442;13.284;2023-12-04T05:34:42;-3276.60;66.00
67050;DHT22;53955;52.442;13.284;2023-12-04T05:37:09;-3276.60;66.00
67050;DHT22;53955;52.442;13.284;2023-12-04T05:39:35;-3276.50;65.80
67050;DHT22;53955;52.442;13.284;2023-12-04T05:42:02;0.00;66.90
67050;DHT22;53955;52.442;13.284;2023-12-04T05:44:30;-3276.40;66.40
67050;DHT22;53955;52.442;13.284;2023-12-04T05:46:57;-3276.70;64.70
67050;DHT22;53955;52.442;13.284;2023-12-04T05:49:23;-3276.50;65.50
67050;DHT22;53955;52.442;13.284;2023-12-04T05:51:51;0.00;64.70
67050;DHT22;53955;52.442;13.284;2023-12-04T05:54:18;-3276.50;65.00
67050;DHT22;53955;52.442;13.284;2023-12-04T05:56:44;-3276.60;64.60
67050;DHT22;53955;52.442;13.284;2023-12-04T05:59:11;-3276.60;64.90
67050;DHT22;53955;52.442;13.284;2023-12-04T06:01:37;-3276.50;67.10
67050;DHT22;53955;52.442;13.284;2023-12-04T06:04:04;0.00;65.80
67050;DHT22;53955;52.442;13.284;2023-12-04T06:06:30;-3276.60;66.20
67050;DHT22;53955;52.442;13.284;2023-12-04T06:08:58;0.00;65.20
67050;DHT22;53955;52.442;13.284;2023-12-04T06:11:25;-3276.70;65.40
67050;DHT22;53955;52.442;13.284;2023-12-04T06:13:51;-3276.60;65.80
67050;DHT22;53955;52.442;13.284;2023-12-04T06:16:18;0.00;65.10
67050;DHT22;53955;52.442;13.284;2023-12-04T06:18:44;-3276.70;65.30
67050;DHT22;53955;52.442;13.284;2023-12-04T06:21:11;-3276.60;65.00
67050;DHT22;53955;52.442;13.284;2023-12-04T06:23:38;-3276.60;65.70
67050;DHT22;53955;52.442;13.284;2023-12-04T06:26:07;-3276.70;64.70
67050;DHT22;53955;52.442;13.284;2023-12-04T06:28:35;-3276.60;64.50
67050;DHT22;53955;52.442;13.284;2023-12-04T06:31:02;-3276.60;64.70
67050;DHT22;53955;52.442;13.284;2023-12-04T06:33:29;-3276.50;64.70
67050;DHT22;53955;52.442;13.284;2023-12-04T06:35:56;-3276.60;65.20
67050;DHT22;53955;52.442;13.284;2023-12-04T06:38:24;-3276.70;64.80
67050;DHT22;53955;52.442;13.284;2023-12-04T06:40:52;-3276.60;64.90
67050;DHT22;53955;52.442;13.284;2023-12-04T06:43:20;-3276.70;65.30
67050;DHT22;53955;52.442;13.284;2023-12-04T06:45:48;0.10;65.30
67050;DHT22;53955;52.442;13.284;2023-12-04T06:48:15;0.00;66.00
67050;DHT22;53955;52.442;13.284;2023-12-04T06:50:42;0.00;65.30
67050;DHT22;53955;52.442;13.284;2023-12-04T06:53:09;0.00;65.50
67050;DHT22;53955;52.442;13.284;2023-12-04T06:55:35;0.00;66.20
67050;DHT22;53955;52.442;13.284;2023-12-04T06:58:02;0.20;66.20
67050;DHT22;53955;52.442;13.284;2023-12-04T07:00:30;-3276.60;65.40
67050;DHT22;53955;52.442;13.284;2023-12-04T07:02:56;0.10;65.70
67050;DHT22;53955;52.442;13.284;2023-12-04T07:05:23;0.10;66.80
67050;DHT22;53955;52.442;13.284;2023-12-04T07:07:50;0.00;66.50
67050;DHT22;53955;52.442;13.284;2023-12-04T07:10:16;0.20;67.10
67050;DHT22;53955;52.442;13.284;2023-12-04T07:12:45;0.00;66.90
67050;DHT22;53955;52.442;13.284;2023-12-04T07:15:11;0.20;68.00
67050;DHT22;53955;52.442;13.284;2023-12-04T07:17:39;0.30;67.30
67050;DHT22;53955;52.442;13.284;2023-12-04T07:20:07;0.40;66.20
67050;DHT22;53955;52.442;13.284;2023-12-04T07:22:33;0.30;67.20
67050;DHT22;53955;52.442;13.284;2023-12-04T07:25:00;0.30;66.50
67050;DHT22;53955;52.442;13.284;2023-12-04T07:27:27;0.60;66.20
67050;DHT22;53955;52.442;13.284;2023-12-04T07:29:54;0.40;65.80
67050;DHT22;53955;52.442;13.284;2023-12-04T07:32:20;0.20;67.20
67050;DHT22;53955;52.442;13.284;2023-12-04T07:34:48;0.40;66.70
67050;DHT22;53955;52.442;13.284;2023-12-04T07:37:14;0.50;66.60
67050;DHT22;53955;52.442;13.284;2023-12-04T07:39:41;0.40;68.10
67050;DHT22;53955;52.442;13.284;2023-12-04T07:42:11;0.50;67.20
67050;DHT22;53955;52.442;13.284;2023-12-04T07:44:38;0.60;67.70
67050;DHT22;53955;52.442;13.284;2023-12-04T07:47:04;0.50;66.70
67050;DHT22;53955;52.442;13.284;2023-12-04T07:49:31;0.80;66.40
67050;DHT22;53955;52.442;13.284;2023-12-04T07:51:59;0.70;67.10
67050;DHT22;53955;52.442;13.284;2023-12-04T07:54:25;0.80;67.50
67050;DHT22;53955;52.442;13.284;2023-12-04T07:56:52;1.00;65.60
67050;DHT22;53955;52.442;13.284;2023-12-04T07:59:19;0.70;65.70
67050;DHT22;53955;52.442;13.284;2023-12-04T08:01:46;0.90;65.40
67050;DHT22;53955;52.442;13.284;2023-12-04T08:04:12;0.90;65.20
67050;DHT22;53955;52.442;13.284;2023-12-04T08:06:39;0.70;65.30
67050;DHT22;53955;52.442;13.284;2023-12-04T08:09:07;1.00;65.00
67050;DHT22;53955;52.442;13.284;2023-12-04T08:11:35;1.00;64.30
67050;DHT22;53955;52.442;13.284;2023-12-04T08:14:02;0.90;63.70
67050;DHT22;53955;52.442;13.284;2023-12-04T08:16:29;1.10;64.00
67050;DHT22;53955;52.442;13.284;2023-12-04T08:18:56;0.90;64.20
67050;DHT22;53955;52.442;13.284;2023-12-04T08:21:22;0.90;62.90
67050;DHT22;53955;52.442;13.284;2023-12-04T08:23:49;0.90;62.90
67050;DHT22;53955;52.442;13.284;2023-12-04T08:26:22;0.80;64.00
67050;DHT22;53955;52.442;13.284;2023-12-04T08:28:49;0.90;63.70
67050;DHT22;53955;52.442;13.284;2023-12-04T08:31:16;0.90;64.20
67050;DHT22;53955;52.442;13.284;2023-12-04T08:33:43;1.00;63.80
67050;DHT22;53955;52.442;13.284;2023-12-04T08:36:11;1.30;64.20
67050;DHT22;53955;52.442;13.284;2023-12-04T08:38:38;1.00;64.20
67050;DHT22;53955;52.442;13.284;2023-12-04T08:41:05;1.20;64.00
67050;DHT22;53955;52.442;13.284;2023-12-04T08:43:33;1.30;63.10
67050;DHT22;53955;52.442;13.284;2023-12-04T08:45:59;1.30;62.30
67050;DHT22;53955;52.442;13.284;2023-12-04T08:48:26;1.20;62.80
67050;DHT22;53955;52.442;13.284;2023-12-04T08:50:53;1.50;62.70
67050;DHT22;53955;52.442;13.284;2023-12-04T08:53:19;1.30;63.30
67050;DHT22;53955;52.442;13.284;2023-12-04T08:55:46;1.30;62.90
67050;DHT22;53955;52.442;13.284;2023-12-04T08:58:13;1.50;63.00
67050;DHT22;53955;52.442;13.284;2023-12-04T09:00:40;1.40;63.40
67050;DHT22;53955;52.442;13.284;2023-12-04T09:03:08;1.40;63.50
67050;DHT22;53955;52.442;13.284;2023-12-04T09:05:35;1.40;63.60
67050;DHT22;53955;52.442;13.284;2023-12-04T09:08:02;1.50;63.40
67050;DHT22;53955;52.442;13.284;2023-12-04T09:10:29;1.40;61.30
67050;DHT22;53955;52.442;13.284;2023-12-04T09:12:55;1.50;62.90
67050;DHT22;53955;52.442;13.284;2023-12-04T09:15:22;1.70;63.80
67050;DHT22;53955;52.442;13.284;2023-12-04T09:17:50;1.70;62.70
67050;DHT22;53955;52.442;13.284;2023-12-04T09:20:16;1.50;62.50
67050;DHT22;53955;52.442;13.284;2023-12-04T09:22:43;1.50;62.10
67050;DHT22;53955;52.442;13.284;2023-12-04T09:25:10;1.90;61.80
67050;DHT22;53955;52.442;13.284;2023-12-04T09:27:36;1.70;61.70
67050;DHT22;53955;52.442;13.284;2023-12-04T09:30:04;1.70;61.50
67050;DHT22;53955;52.442;13.284;2023-12-04T09:32:30;1.60;62.30
67050;DHT22;53955;52.442;13.284;2023-12-04T09:34:58;1.40;61.70
67050;DHT22;53955;52.442;13.284;2023-12-04T09:37:25;1.40;62.70
67050;DHT22;53955;52.442;13.284;2023-12-04T09:39:51;1.40;63.30
67050;DHT22;53955;52.442;13.284;2023-12-04T09:42:19;1.10;62.40
67050;DHT22;53955;52.442;13.284;2023-12-04T09:44:47;1.30;63.60
67050;DHT22;53955;52.442;13.284;2023-12-04T09:47:13;1.30;62.80
67050;DHT22;53955;52.442;13.284;2023-12-04T09:49:41;1.40;62.90
67050;DHT22;53955;52.442;13.284;2023-12-04T09:52:10;1.30;62.40
67050;DHT22;53955;52.442;13.284;2023-12-04T09:54:37;1.40;62.70
67050;DHT22;53955;52.442;13.284;2023-12-04T09:57:05;1.00;62.50
67050;DHT22;53955;52.442;13.284;2023-12-04T09:59:32;0.90;63.30
67050;DHT22;53955;52.442;13.284;2023-12-04T10:02:00;1.10;63.30
67050;DHT22;53955;52.442;13.284;2023-12-04T10:04:27;1.10;63.00
67050;DHT22;53955;52.442;13.284;2023-12-04T10:06:54;1.00;63.10
67050;DHT22;53955;52.442;13.284;2023-12-04T10:09:21;1.20;63.50
67050;DHT22;53955;52.442;13.284;2023-12-04T10:11:50;1.30;63.50
67050;DHT22;53955;52.442;13.284;2023-12-04T10:14:19;1.40;63.20
67050;DHT22;53955;52.442;13.284;2023-12-04T10:16:46;1.30;63.30
67050;DHT22;53955;52.442;13.284;2023-12-04T10:19:18;1.20;63.40
67050;DHT22;53955;52.442;13.284;2023-12-04T10:21:45;1.20;63.10
67050;DHT22;53955;52.442;13.284;2023-12-04T10:24:12;1.30;63.50
67050;DHT22;53955;52.442;13.284;2023-12-04T10:26:50;1.40;62.90
67050;DHT22;53955;52.442;13.284;2023-12-04T10:29:17;1.40;63.00
67050;DHT22;53955;52.442;13.284;2023-12-04T10:31:44;1.60;62.90
67050;DHT22;53955;52.442;13.284;2023-12-04T10:34:11;1.60;63.00
67050;DHT22;53955;52.442;13.284;2023-12-04T10:36:38;1.70;64.30
67050;DHT22;53955;52.442;13.284;2023-12-04T10:39:04;1.80;62.80
67050;DHT22;53955;52.442;13.284;2023-12-04T10:41:31;1.70;62.40
67050;DHT22;53955;52.442;13.284;2023-12-04T10:43:59;1.80;62.30
67050;DHT22;53955;52.442;13.284;2023-12-04T10:46:26;1.80;62.50
67050;DHT22;53955;52.442;13.284;2023-12-04T10:48:53;1.70;63.30
67050;DHT22;53955;52.442;13.284;2023-12-04T10:51:20;1.60;63.60
67050;DHT22;53955;52.442;13.284;2023-12-04T10:53:48;1.80;62.70
67050;DHT22;53955;52.442;13.284;2023-12-04T10:56:19;1.70;62.60
67050;DHT22;53955;52.442;13.284;2023-12-04T10:58:50;1.90;62.70
67050;DHT22;53955;52.442;13.284;2023-12-04T11:01:19;2.00;62.40
67050;DHT22;53955;52.442;13.284;2023-12-04T11:03:49;1.90;62.30
67050;DHT22;53955;52.442;13.284;2023-12-04T11:06:18;2.00;62.50
67050;DHT22;53955;52.442;13.284;2023-12-04T11:08:48;2.40;61.60
67050;DHT22;53955;52.442;13.284;2023-12-04T11:11:21;2.10;62.20
67050;DHT22;53955;52.442;13.284;2023-12-04T11:13:54;2.00;61.80
67050;DHT22;53955;52.442;13.284;2023-12-04T11:16:27;2.10;61.90
67050;DHT22;53955;52.442;13.284;2023-12-04T11:19:03;2.10;61.40
67050;DHT22;53955;52.442;13.284;2023-12-04T11:21:32;1.90;62.30
67050;DHT22;53955;52.442;13.284;2023-12-04T11:24:00;1.90;62.60
67050;DHT22;53955;52.442;13.284;2023-12-04T11:26:28;1.80;62.50
67050;DHT22;53955;52.442;13.284;2023-12-04T11:28:55;1.70;62.60
67050;DHT22;53955;52.442;13.284;2023-12-04T11:31:24;1.90;62.50
67050;DHT22;53955;52.442;13.284;2023-12-04T11:33:51;1.80;62.90
67050;DHT22;53955;52.442;13.284;2023-12-04T11:36:18;1.80;63.10
67050;DHT22;53955;52.442;13.284;2023-12-04T11:38:46;1.80;63.30
67050;DHT22;53955;52.442;13.284;2023-12-04T11:41:16;2.00;63.00
67050;DHT22;53955;52.442;13.284;2023-12-04T11:43:45;2.10;63.50
67050;DHT22;53955;52.442;13.284;2023-12-04T11:46:11;2.10;62.50
67050;DHT22;53955;52.442;13.284;2023-12-04T11:48:40;2.30;62.70
67050;DHT22;53955;52.442;13.284;2023-12-04T11:51:07;2.10;62.70
67050;DHT22;53955;52.442;13.284;2023-12-04T11:53:37;2.10;63.50
67050;DHT22;53955;52.442;13.284;2023-12-04T11:56:09;2.20;62.80
67050;DHT22;53955;52.442;13.284;2023-12-04T11:58:42;2.20;63.00
67050;DHT22;53955;52.442;13.284;2023-12-04T12:01:08;2.10;62.40
67050;DHT22;53955;52.442;13.284;2023-12-04T12:03:36;2.50;62.50
67050;DHT22;53955;52.442;13.284;2023-12-04T12:06:04;2.40;62.70
67050;DHT22;53955;52.442;13.284;2023-12-04T12:08:31;2.50;60.90
67050;DHT22;53955;52.442;13.284;2023-12-04T12:10:58;2.10;63.30
67050;DHT22;53955;52.442;13.284;2023-12-04T12:13:25;2.30;63.10
67050;DHT22;53955;52.442;13.284;2023-12-04T12:15:52;2.40;63.20
67050;DHT22;53955;52.442;13.284;2023-12-04T12:18:19;2.30;63.20
67050;DHT22;53955;52.442;13.284;2023-12-04T12:20:48;2.30;63.00
67050;DHT22;53955;52.442;13.284;2023-12-04T12:23:16;2.20;63.40
67050;DHT22;53955;52.442;13.284;2023-12-04T12:25:43;2.00;63.50
67050;DHT22;53955;52.442;13.284;2023-12-04T12:28:10;2.10;63.40
67050;DHT22;53955;52.442;13.284;2023-12-04T12:30:37;2.30;63.50
67050;DHT22;53955;52.442;13.284;2023-12-04T12:33:03;2.30;62.50
67050;DHT22;53955;52.442;13.284;2023-12-04T12:35:30;2.30;63.20
67050;DHT22;53955;52.442;13.284;2023-12-04T12:37:57;2.20;63.40
67050;DHT22;53955;52.442;13.284;2023-12-04T12:40:27;2.10;63.40
67050;DHT22;53955;52.442;13.284;2023-12-04T12:43:03;2.10;63.80
67050;DHT22;53955;52.442;13.284;2023-12-04T12:45:38;2.30;64.80
67050;DHT22;53955;52.442;13.284;2023-12-04T12:48:05;2.20;63.40
67050;DHT22;53955;52.442;13.284;2023-12-04T12:50:32;2.20;64.60
67050;DHT22;53955;52.442;13.284;2023-12-04T12:53:01;2.30;64.30
67050;DHT22;53955;52.442;13.284;2023-12-04T12:55:29;2.30;64.10
67050;DHT22;53955;52.442;13.284;2023-12-04T12:57:56;2.30;63.70
67050;DHT22;53955;52.442;13.284;2023-12-04T13:00:23;2.40;63.90
67050;DHT22;53955;52.442;13.284;2023-12-04T13:02:52;2.10;65.30
67050;DHT22;53955;52.442;13.284;2023-12-04T13:05:19;2.30;65.90
67050;DHT22;53955;52.442;13.284;2023-12-04T13:07:46;2.40;65.20
67050;DHT22;53955;52.442;13.284;2023-12-04T13:10:12;2.40;64.80
67050;DHT22;53955;52.442;13.284;2023-12-04T13:12:40;2.20;64.60
67050;DHT22;53955;52.442;13.284;2023-12-04T13:15:07;2.40;64.00
67050;DHT22;53955;52.442;13.284;2023-12-04T13:17:35;2.40;64.90
67050;DHT22;53955;52.442;13.284;2023-12-04T13:20:02;2.20;65.20
67050;DHT22;53955;52.442;13.284;2023-12-04T13:22:30;2.40;65.40
67050;DHT22;53955;52.442;13.284;2023-12-04T13:24:58;2.20;65.90
67050;DHT22;53955;52.442;13.284;2023-12-04T13:27:25;2.50;64.70
67050;DHT22;53955;52.442;13.284;2023-12-04T13:29:52;2.40;64.40
67050;DHT22;53955;52.442;13.284;2023-12-04T13:32:19;2.30;65.20
67050;DHT22;53955;52.442;13.284;2023-12-04T13:34:46;2.20;66.10
67050;DHT22;53955;52.442;13.284;2023-12-04T13:37:12;2.30;65.60
67050;DHT22;53955;52.442;13.284;2023-12-04T13:39:39;2.20;65.30
67050;DHT22;53955;52.442;13.284;2023-12-04T13:42:14;2.30;65.30
67050;DHT22;53955;52.442;13.284;2023-12-04T13:44:56;2.20;65.40
67050;DHT22;53955;52.442;13.284;2023-12-04T13:47:23;2.50;65.30
67050;DHT22;53955;52.442;13.284;2023-12-04T13:49:49;2.30;65.10
67050;DHT22;53955;52.442;13.284;2023-12-04T13:52:16;2.40;66.00
67050;DHT22;53955;52.442;13.284;2023-12-04T13:54:47;2.60;65.60
67050;DHT22;53955;52.442;13.284;2023-12-04T13:57:14;2.60;65.30
67050;DHT22;53955;52.442;13.284;2023-12-04T13:59:46;2.40;65.70
67050;DHT22;53955;52.442;13.284;2023-12-04T14:02:14;2.40;65.60
67050;DHT22;53955;52.442;13.284;2023-12-04T14:04:41;2.40;66.30
67050;DHT22;53955;52.442;13.284;2023-12-04T14:07:07;2.40;65.70
67050;DHT22;53955;52.442;13.284;2023-12-04T14:09:35;2.40;66.30
67050;DHT22;53955;52.442;13.284;2023-12-04T14:12:02;2.30;66.60
67050;DHT22;53955;52.442;13.284;2023-12-04T14:14:28;2.40;66.50
67050;DHT22;53955;52.442;13.284;2023-12-04T14:16:55;2.30;65.60
67050;DHT22;53955;52.442;13.284;2023-12-04T14:19:23;2.20;66.30
67050;DHT22;53955;52.442;13.284;2023-12-04T14:21:49;2.40;65.50
67050;DHT22;53955;52.442;13.284;2023-12-04T14:24:16;2.10;66.30
67050;DHT22;53955;52.442;13.284;2023-12-04T14:26:43;2.40;66.20
67050;DHT22;53955;52.442;13.284;2023-12-04T14:29:10;2.10;66.70
67050;DHT22;53955;52.442;13.284;2023-12-04T14:31:38;2.00;66.50
67050;DHT22;53955;52.442;13.284;2023-12-04T14:34:05;2.10;66.70
67050;DHT22;53955;52.442;13.284;2023-12-04T14:36:33;2.20;66.20
67050;DHT22;53955;52.442;13.284;2023-12-04T14:39:00;2.30;66.40
67050;DHT22;53955;52.442;13.284;2023-12-04T14:41:28;2.20;66.80
67050;DHT22;53955;52.442;13.284;2023-12-04T14:43:54;2.20;71.10
67050;DHT22;53955;52.442;13.284;2023-12-04T14:46:21;2.20;67.80
67050;DHT22;53955;52.442;13.284;2023-12-04T14:48:47;2.30;67.00
67050;DHT22;53955;52.442;13.284;2023-12-04T14:51:15;2.30;65.90
67050;DHT22;53955;52.442;13.284;2023-12-04T14:53:43;2.20;66.10
67050;DHT22;53955;52.442;13.284;2023-12-04T14:56:16;2.40;66.60
67050;DHT22;53955;52.442;13.284;2023-12-04T14:58:50;2.30;66.10
67050;DHT22;53955;52.442;13.284;2023-12-04T21:02:39;-3276.60;71.50
67050;DHT22;53955;52.442;13.284;2023-12-04T21:05:07;0.70;67.70
67050;DHT22;53955;52.442;13.284;2023-12-04T21:07:34;1.00;66.40
67050;DHT22;53955;52.442;13.284;2023-12-04T21:10:00;1.40;67.50
67050;DHT22;53955;52.442;13.284;2023-12-04T21:12:27;1.30;65.40
67050;DHT22;53955;52.442;13.284;2023-12-04T21:14:53;1.30;64.90